sensor_id;sensor_type;location;lat;lon;timestamp;pressure;altitude;pressure_sealevel;temperature;humidity
60646;BME280;46462;32.608;-117.032;2023-04-01T00:01:49;99923.01;;;23.70;34.14
60646;BME280;46462;32.608;-117.032;2023-04-01T00:04:20;99923.07;;;23.63;34.32
60646;BME280;46462;32.608;-117.032;2023-04-01T00:06:51;99920.36;;;23.59;34.40
60646;BME280;46462;32.608;-117.032;2023-04-01T00:09:22;99920.32;;;23.53;34.54
60646;BME280;46462;32.608;-117.032;2023-04-01T00:11:53;99915.08;;;23.51;34.59
60646;BME280;46462;32.608;-117.032;2023-04-01T00:14:23;99913.65;;;23.47;34.71
60646;BME280;46462;32.608;-117.032;2023-04-01T00:16:54;99910.73;;;23.46;34.72
60646;BME280;46462;32.608;-117.032;2023-04-01T00:19:25;99912.28;;;23.44;34.78
60646;BME280;46462;32.608;-117.032;2023-04-01T00:21:56;99909.91;;;23.43;34.83
60646;BME280;46462;32.608;-117.032;2023-04-01T00:24:26;99910.58;;;23.36;34.97
60646;BME280;46462;32.608;-117.032;2023-04-01T00:26:57;99908.38;;;23.36;35.05
60646;BME280;46462;32.608;-117.032;2023-04-01T00:29:28;99904.07;;;23.34;35.11
60646;BME280;46462;32.608;-117.032;2023-04-01T00:31:59;99904.67;;;23.33;35.14
60646;BME280;46462;32.608;-117.032;2023-04-01T00:34:29;99904.77;;;23.29;35.24
60646;BME280;46462;32.608;-117.032;2023-04-01T00:37:00;99905.06;;;23.27;35.31
60646;BME280;46462;32.608;-117.032;2023-04-01T00:39:31;99903.34;;;23.23;35.40
60646;BME280;46462;32.608;-117.032;2023-04-01T00:42:03;99906.41;;;23.20;35.45
60646;BME280;46462;32.608;-117.032;2023-04-01T00:44:33;99909.21;;;23.15;35.56
60646;BME280;46462;32.608;-117.032;2023-04-01T00:47:05;99911.63;;;23.12;35.62
60646;BME280;46462;32.608;-117.032;2023-04-01T00:49:37;99906.91;;;23.09;35.72
60646;BME280;46462;32.608;-117.032;2023-04-01T00:52:07;99911.45;;;23.06;35.83
60646;BME280;46462;32.608;-117.032;2023-04-01T00:54:36;99912.56;;;23.01;35.95
60646;BME280;46462;32.608;-117.032;2023-04-01T00:57:09;99908.40;;;22.99;36.06
60646;BME280;46462;32.608;-117.032;2023-04-01T00:59:40;99906.34;;;22.95;36.18
60646;BME280;46462;32.608;-117.032;2023-04-01T01:02:11;99908.11;;;22.99;36.18
60646;BME280;46462;32.608;-117.032;2023-04-01T01:04:39;99904.78;;;23.01;36.17
60646;BME280;46462;32.608;-117.032;2023-04-01T01:07:20;99904.27;;;23.04;36.16
60646;BME280;46462;32.608;-117.032;2023-04-01T01:09:46;99903.14;;;23.05;36.15
60646;BME280;46462;32.608;-117.032;2023-04-01T01:12:14;99902.47;;;23.08;36.03
60646;BME280;46462;32.608;-117.032;2023-04-01T01:14:52;99901.33;;;23.09;36.07
60646;BME280;46462;32.608;-117.032;2023-04-01T01:17:17;99899.13;;;23.12;35.94
60646;BME280;46462;32.608;-117.032;2023-04-01T01:19:55;99898.68;;;23.13;36.00
60646;BME280;46462;32.608;-117.032;2023-04-01T01:22:24;99892.93;;;23.18;35.92
60646;BME280;46462;32.608;-117.032;2023-04-01T01:24:53;99889.96;;;23.20;35.90
60646;BME280;46462;32.608;-117.032;2023-04-01T01:27:17;99892.38;;;23.22;35.85
60646;BME280;46462;32.608;-117.032;2023-04-01T01:34:53;99888.78;;;23.15;35.92
60646;BME280;46462;32.608;-117.032;2023-04-01T01:37:22;99890.51;;;23.10;36.00
60646;BME280;46462;32.608;-117.032;2023-04-01T01:39:53;99886.42;;;23.06;36.12
60646;BME280;46462;32.608;-117.032;2023-04-01T01:42:21;99882.14;;;23.08;36.11
60646;BME280;46462;32.608;-117.032;2023-04-01T01:44:52;99882.03;;;23.08;36.12
60646;BME280;46462;32.608;-117.032;2023-04-01T01:47:23;99877.12;;;23.10;36.12
60646;BME280;46462;32.608;-117.032;2023-04-01T01:49:54;99878.03;;;23.12;36.08
60646;BME280;46462;32.608;-117.032;2023-04-01T01:52:24;99876.78;;;23.13;36.08
60646;BME280;46462;32.608;-117.032;2023-04-01T01:54:56;99879.89;;;23.13;36.10
60646;BME280;46462;32.608;-117.032;2023-04-01T01:57:28;99878.18;;;23.12;36.12
60646;BME280;46462;32.608;-117.032;2023-04-01T02:00:00;99878.26;;;23.08;36.19
60646;BME280;46462;32.608;-117.032;2023-04-01T02:02:27;99877.35;;;23.09;36.20
60646;BME280;46462;32.608;-117.032;2023-04-01T02:04:58;99874.19;;;23.06;36.27
60646;BME280;46462;32.608;-117.032;2023-04-01T02:07:32;99871.02;;;23.05;36.30
60646;BME280;46462;32.608;-117.032;2023-04-01T02:09:59;99868.62;;;23.05;36.35
60646;BME280;46462;32.608;-117.032;2023-04-01T02:12:30;99874.92;;;23.05;36.33
60646;BME280;46462;32.608;-117.032;2023-04-01T02:15:04;99872.96;;;23.04;36.37
60646;BME280;46462;32.608;-117.032;2023-04-01T02:17:32;99870.36;;;23.05;36.39
60646;BME280;46462;32.608;-117.032;2023-04-01T02:20:04;99876.41;;;23.05;36.40
60646;BME280;46462;32.608;-117.032;2023-04-01T02:22:35;99878.09;;;23.02;36.46
60646;BME280;46462;32.608;-117.032;2023-04-01T02:25:10;99876.32;;;23.02;36.47
60646;BME280;46462;32.608;-117.032;2023-04-01T02:27:38;99878.37;;;23.05;36.46
60646;BME280;46462;32.608;-117.032;2023-04-01T02:30:08;99875.77;;;23.04;36.47
60646;BME280;46462;32.608;-117.032;2023-04-01T02:32:39;99873.12;;;23.07;36.40
60646;BME280;46462;32.608;-117.032;2023-04-01T02:35:12;99879.88;;;23.04;36.48
60646;BME280;46462;32.608;-117.032;2023-04-01T02:37:40;99881.08;;;23.00;36.61
60646;BME280;46462;32.608;-117.032;2023-04-01T02:40:13;99883.47;;;22.95;36.72
60646;BME280;46462;32.608;-117.032;2023-04-01T02:42:41;99885.97;;;22.93;36.77
60646;BME280;46462;32.608;-117.032;2023-04-01T02:45:13;99884.15;;;22.87;36.95
60646;BME280;46462;32.608;-117.032;2023-04-01T02:47:43;99886.80;;;22.88;36.92
60646;BME280;46462;32.608;-117.032;2023-04-01T02:50:13;99886.28;;;22.81;37.14
60646;BME280;46462;32.608;-117.032;2023-04-01T02:52:44;99882.19;;;22.79;37.22
60646;BME280;46462;32.608;-117.032;2023-04-01T02:55:15;99881.60;;;22.82;37.16
60646;BME280;46462;32.608;-117.032;2023-04-01T02:57:46;99884.50;;;22.88;37.02
60646;BME280;46462;32.608;-117.032;2023-04-01T03:00:17;99885.58;;;22.87;37.10
60646;BME280;46462;32.608;-117.032;2023-04-01T03:02:47;99884.23;;;22.90;37.05
60646;BME280;46462;32.608;-117.032;2023-04-01T03:05:18;99883.49;;;22.83;37.20
60646;BME280;46462;32.608;-117.032;2023-04-01T03:07:49;99880.73;;;22.94;36.99
60646;BME280;46462;32.608;-117.032;2023-04-01T03:10:20;99880.59;;;22.90;37.05
60646;BME280;46462;32.608;-117.032;2023-04-01T03:12:50;99879.42;;;22.86;37.15
60646;BME280;46462;32.608;-117.032;2023-04-01T03:15:21;99875.42;;;22.82;37.29
60646;BME280;46462;32.608;-117.032;2023-04-01T03:17:52;99876.56;;;22.82;37.31
60646;BME280;46462;32.608;-117.032;2023-04-01T03:20:23;99881.64;;;22.82;37.31
60646;BME280;46462;32.608;-117.032;2023-04-01T03:22:54;99875.62;;;22.81;37.35
60646;BME280;46462;32.608;-117.032;2023-04-01T03:25:25;99876.09;;;22.78;37.42
60646;BME280;46462;32.608;-117.032;2023-04-01T03:27:55;99876.66;;;22.82;37.33
60646;BME280;46462;32.608;-117.032;2023-04-01T03:30:26;99874.71;;;22.80;37.39
60646;BME280;46462;32.608;-117.032;2023-04-01T03:32:57;99877.39;;;22.80;37.40
60646;BME280;46462;32.608;-117.032;2023-04-01T03:35:28;99879.70;;;22.81;37.43
60646;BME280;46462;32.608;-117.032;2023-04-01T03:37:58;99882.44;;;22.76;37.53
60646;BME280;46462;32.608;-117.032;2023-04-01T03:40:29;99888.59;;;22.76;37.51
60646;BME280;46462;32.608;-117.032;2023-04-01T03:43:00;99889.69;;;22.76;37.53
60646;BME280;46462;32.608;-117.032;2023-04-01T03:45:31;99892.27;;;22.73;37.61
60646;BME280;46462;32.608;-117.032;2023-04-01T03:48:01;99898.70;;;22.72;37.63
60646;BME280;46462;32.608;-117.032;2023-04-01T03:50:32;99904.09;;;22.72;37.67
60646;BME280;46462;32.608;-117.032;2023-04-01T03:53:03;99911.75;;;22.71;37.69
60646;BME280;46462;32.608;-117.032;2023-04-01T03:55:35;99912.80;;;22.72;37.68
60646;BME280;46462;32.608;-117.032;2023-04-01T03:58:05;99919.00;;;22.70;37.71
60646;BME280;46462;32.608;-117.032;2023-04-01T04:00:36;99921.78;;;22.72;37.68
60646;BME280;46462;32.608;-117.032;2023-04-01T04:03:07;99922.48;;;22.62;37.89
60646;BME280;46462;32.608;-117.032;2023-04-01T04:05:37;99922.06;;;22.66;37.83
60646;BME280;46462;32.608;-117.032;2023-04-01T04:08:08;99918.70;;;22.62;37.89
60646;BME280;46462;32.608;-117.032;2023-04-01T04:10:38;99920.28;;;22.60;37.94
60646;BME280;46462;32.608;-117.032;2023-04-01T04:13:09;99924.72;;;22.60;37.96
60646;BME280;46462;32.608;-117.032;2023-04-01T04:15:40;99924.00;;;22.61;37.97
60646;BME280;46462;32.608;-117.032;2023-04-01T04:18:11;99921.84;;;22.61;37.96
60646;BME280;46462;32.608;-117.032;2023-04-01T04:20:44;99922.91;;;22.58;38.00
60646;BME280;46462;32.608;-117.032;2023-04-01T04:23:12;99921.47;;;22.63;37.90
60646;BME280;46462;32.608;-117.032;2023-04-01T04:25:54;99916.68;;;22.65;37.87
60646;BME280;46462;32.608;-117.032;2023-04-01T04:28:14;99912.94;;;22.58;38.01
60646;BME280;46462;32.608;-117.032;2023-04-01T04:30:45;99914.27;;;22.60;37.96
60646;BME280;46462;32.608;-117.032;2023-04-01T04:33:15;99909.53;;;22.57;38.02
60646;BME280;46462;32.608;-117.032;2023-04-01T04:35:46;99911.41;;;22.52;38.12
60646;BME280;46462;32.608;-117.032;2023-04-01T04:38:17;99911.93;;;22.51;38.17
60646;BME280;46462;32.608;-117.032;2023-04-01T04:40:48;99909.97;;;22.51;38.17
60646;BME280;46462;32.608;-117.032;2023-04-01T04:43:19;99912.32;;;22.51;38.13
60646;BME280;46462;32.608;-117.032;2023-04-01T04:45:49;99908.82;;;22.48;38.22
60646;BME280;46462;32.608;-117.032;2023-04-01T04:48:20;99911.18;;;22.48;38.24
60646;BME280;46462;32.608;-117.032;2023-04-01T04:50:51;99916.11;;;22.43;38.32
60646;BME280;46462;32.608;-117.032;2023-04-01T04:53:22;99922.41;;;22.49;38.20
60646;BME280;46462;32.608;-117.032;2023-04-01T04:55:53;99923.61;;;22.49;38.21
60646;BME280;46462;32.608;-117.032;2023-04-01T04:58:23;99923.86;;;22.52;38.14
60646;BME280;46462;32.608;-117.032;2023-04-01T05:00:54;99917.83;;;22.53;38.11
60646;BME280;46462;32.608;-117.032;2023-04-01T05:03:25;99913.98;;;22.52;38.12
60646;BME280;46462;32.608;-117.032;2023-04-01T05:05:56;99909.38;;;22.52;38.12
60646;BME280;46462;32.608;-117.032;2023-04-01T05:08:26;99904.98;;;22.48;38.23
60646;BME280;46462;32.608;-117.032;2023-04-01T05:10:57;99901.71;;;22.48;38.20
60646;BME280;46462;32.608;-117.032;2023-04-01T05:13:28;99901.20;;;22.45;38.21
60646;BME280;46462;32.608;-117.032;2023-04-01T05:15:59;99904.50;;;22.47;38.16
60646;BME280;46462;32.608;-117.032;2023-04-01T05:18:30;99907.35;;;22.45;38.24
60646;BME280;46462;32.608;-117.032;2023-04-01T05:21:00;99909.09;;;22.47;38.16
60646;BME280;46462;32.608;-117.032;2023-04-01T05:23:32;99909.71;;;22.46;38.20
60646;BME280;46462;32.608;-117.032;2023-04-01T05:26:04;99907.06;;;22.45;38.20
60646;BME280;46462;32.608;-117.032;2023-04-01T05:28:33;99904.94;;;22.45;38.18
60646;BME280;46462;32.608;-117.032;2023-04-01T05:31:05;99904.57;;;22.49;38.12
60646;BME280;46462;32.608;-117.032;2023-04-01T05:33:35;99904.35;;;22.50;38.05
60646;BME280;46462;32.608;-117.032;2023-04-01T05:36:09;99902.86;;;22.47;38.11
60646;BME280;46462;32.608;-117.032;2023-04-01T05:38:36;99901.47;;;22.51;38.01
60646;BME280;46462;32.608;-117.032;2023-04-01T05:41:07;99902.47;;;22.51;38.00
60646;BME280;46462;32.608;-117.032;2023-04-01T05:43:38;99904.33;;;22.46;38.10
60646;BME280;46462;32.608;-117.032;2023-04-01T05:46:09;99901.28;;;22.44;38.11
60646;BME280;46462;32.608;-117.032;2023-04-01T05:48:39;99900.72;;;22.41;38.15
60646;BME280;46462;32.608;-117.032;2023-04-01T05:51:13;99900.39;;;22.41;38.15
60646;BME280;46462;32.608;-117.032;2023-04-01T05:53:41;99899.89;;;22.42;38.13
60646;BME280;46462;32.608;-117.032;2023-04-01T05:56:12;99898.17;;;22.41;38.13
60646;BME280;46462;32.608;-117.032;2023-04-01T05:58:42;99896.19;;;22.36;38.18
60646;BME280;46462;32.608;-117.032;2023-04-01T06:01:13;99895.25;;;22.36;38.20
60646;BME280;46462;32.608;-117.032;2023-04-01T06:03:44;99896.20;;;22.35;38.20
60646;BME280;46462;32.608;-117.032;2023-04-01T06:06:19;99896.28;;;22.36;38.19
60646;BME280;46462;32.608;-117.032;2023-04-01T06:08:46;99900.70;;;22.32;38.24
60646;BME280;46462;32.608;-117.032;2023-04-01T06:11:25;99902.49;;;22.35;38.16
60646;BME280;46462;32.608;-117.032;2023-04-01T06:14:00;99899.02;;;22.32;38.18
60646;BME280;46462;32.608;-117.032;2023-04-01T06:16:23;99893.75;;;22.35;38.09
60646;BME280;46462;32.608;-117.032;2023-04-01T06:18:59;99892.11;;;22.37;38.04
60646;BME280;46462;32.608;-117.032;2023-04-01T06:21:28;99889.90;;;22.39;37.99
60646;BME280;46462;32.608;-117.032;2023-04-01T06:23:59;99890.81;;;22.35;38.02
60646;BME280;46462;32.608;-117.032;2023-04-01T06:26:28;99892.47;;;22.29;38.12
60646;BME280;46462;32.608;-117.032;2023-04-01T06:29:04;99898.36;;;22.35;38.00
60646;BME280;46462;32.608;-117.032;2023-04-01T06:31:36;99901.45;;;22.32;38.05
60646;BME280;46462;32.608;-117.032;2023-04-01T06:34:06;99902.45;;;22.33;38.00
60646;BME280;46462;32.608;-117.032;2023-04-01T06:36:38;99905.85;;;22.34;37.96
60646;BME280;46462;32.608;-117.032;2023-04-01T06:39:05;99903.37;;;22.27;38.07
60646;BME280;46462;32.608;-117.032;2023-04-01T06:44:04;99897.92;;;22.25;38.04
60646;BME280;46462;32.608;-117.032;2023-04-01T06:46:36;99898.52;;;22.28;37.97
60646;BME280;46462;32.608;-117.032;2023-04-01T06:49:10;99904.43;;;22.28;37.96
60646;BME280;46462;32.608;-117.032;2023-04-01T06:51:37;99906.21;;;22.23;38.01
60646;BME280;46462;32.608;-117.032;2023-04-01T06:54:04;99902.48;;;22.19;38.08
60646;BME280;46462;32.608;-117.032;2023-04-01T06:56:32;99895.71;;;22.11;38.23
60646;BME280;46462;32.608;-117.032;2023-04-01T06:59:04;99893.04;;;22.12;38.20
60646;BME280;46462;32.608;-117.032;2023-04-01T07:01:37;99896.50;;;22.11;38.18
60646;BME280;46462;32.608;-117.032;2023-04-01T07:04:09;99900.67;;;22.12;38.12
60646;BME280;46462;32.608;-117.032;2023-04-01T07:06:38;99898.46;;;22.09;38.17
60646;BME280;46462;32.608;-117.032;2023-04-01T07:09:09;99900.80;;;22.06;38.21
60646;BME280;46462;32.608;-117.032;2023-04-01T07:11:38;99898.77;;;22.08;38.13
60646;BME280;46462;32.608;-117.032;2023-04-01T07:14:13;99895.86;;;22.12;38.05
60646;BME280;46462;32.608;-117.032;2023-04-01T07:16:41;99895.99;;;22.16;37.95
60646;BME280;46462;32.608;-117.032;2023-04-01T07:19:15;99898.38;;;22.15;37.91
60646;BME280;46462;32.608;-117.032;2023-04-01T07:21:42;99897.92;;;22.16;37.87
60646;BME280;46462;32.608;-117.032;2023-04-01T07:24:13;99898.20;;;22.15;37.85
60646;BME280;46462;32.608;-117.032;2023-04-01T07:26:40;99896.09;;;22.12;37.89
60646;BME280;46462;32.608;-117.032;2023-04-01T07:29:13;99893.60;;;22.13;37.83
60646;BME280;46462;32.608;-117.032;2023-04-01T07:31:56;99894.32;;;22.13;37.80
60646;BME280;46462;32.608;-117.032;2023-04-01T07:34:17;99890.51;;;22.14;37.75
60646;BME280;46462;32.608;-117.032;2023-04-01T07:36:46;99887.95;;;22.10;37.79
60646;BME280;46462;32.608;-117.032;2023-04-01T07:39:26;99888.02;;;22.14;37.70
60646;BME280;46462;32.608;-117.032;2023-04-01T07:41:51;99893.28;;;22.12;37.73
60646;BME280;46462;32.608;-117.032;2023-04-01T07:44:23;99890.45;;;22.08;37.76
60646;BME280;46462;32.608;-117.032;2023-04-01T07:46:57;99890.38;;;22.09;37.73
60646;BME280;46462;32.608;-117.032;2023-04-01T07:49:25;99893.83;;;22.09;37.67
60646;BME280;46462;32.608;-117.032;2023-04-01T07:51:54;99896.66;;;22.15;37.53
60646;BME280;46462;32.608;-117.032;2023-04-01T07:54:24;99893.85;;;22.10;37.59
60646;BME280;46462;32.608;-117.032;2023-04-01T07:56:54;99889.68;;;22.07;37.62
60646;BME280;46462;32.608;-117.032;2023-04-01T07:59:27;99883.71;;;22.07;37.59
60646;BME280;46462;32.608;-117.032;2023-04-01T08:01:57;99884.17;;;22.01;37.68
60646;BME280;46462;32.608;-117.032;2023-04-01T08:04:33;99884.25;;;22.02;37.64
60646;BME280;46462;32.608;-117.032;2023-04-01T08:07:00;99878.78;;;21.99;37.65
60646;BME280;46462;32.608;-117.032;2023-04-01T08:09:29;99874.59;;;21.99;37.61
60646;BME280;46462;32.608;-117.032;2023-04-01T08:12:04;99876.41;;;21.97;37.63
60646;BME280;46462;32.608;-117.032;2023-04-01T08:14:32;99881.02;;;21.95;37.64
60646;BME280;46462;32.608;-117.032;2023-04-01T08:17:01;99877.15;;;21.94;37.61
60646;BME280;46462;32.608;-117.032;2023-04-01T08:19:36;99872.84;;;21.96;37.54
60646;BME280;46462;32.608;-117.032;2023-04-01T08:22:02;99873.90;;;21.98;37.49
60646;BME280;46462;32.608;-117.032;2023-04-01T08:24:34;99876.49;;;21.90;37.59
60646;BME280;46462;32.608;-117.032;2023-04-01T08:27:03;99871.78;;;21.91;37.54
60646;BME280;46462;32.608;-117.032;2023-04-01T08:29:36;99870.55;;;21.92;37.49
60646;BME280;46462;32.608;-117.032;2023-04-01T08:32:05;99863.97;;;21.97;37.37
60646;BME280;46462;32.608;-117.032;2023-04-01T08:34:36;99855.76;;;21.90;37.45
60646;BME280;46462;32.608;-117.032;2023-04-01T08:37:07;99857.00;;;21.90;37.43
60646;BME280;46462;32.608;-117.032;2023-04-01T08:39:36;99857.16;;;21.84;37.50
60646;BME280;46462;32.608;-117.032;2023-04-01T08:42:12;99863.06;;;21.86;37.44
60646;BME280;46462;32.608;-117.032;2023-04-01T08:52:20;99862.24;;;21.74;37.55
60646;BME280;46462;32.608;-117.032;2023-04-01T08:54:46;99867.62;;;21.79;37.43
60646;BME280;46462;32.608;-117.032;2023-04-01T08:57:15;99865.82;;;21.80;37.37
60646;BME280;46462;32.608;-117.032;2023-04-01T08:59:51;99859.69;;;21.85;37.23
60646;BME280;46462;32.608;-117.032;2023-04-01T09:02:21;99854.81;;;21.83;37.23
60646;BME280;46462;32.608;-117.032;2023-04-01T09:07:25;99853.67;;;21.77;37.29
60646;BME280;46462;32.608;-117.032;2023-04-01T09:10:00;99850.70;;;21.75;37.26
60646;BME280;46462;32.608;-117.032;2023-04-01T09:14:58;99842.57;;;21.70;37.32
60646;BME280;46462;32.608;-117.032;2023-04-01T09:17:29;99842.95;;;21.82;37.05
60646;BME280;46462;32.608;-117.032;2023-04-01T09:20:00;99844.09;;;21.76;37.10
60646;BME280;46462;32.608;-117.032;2023-04-01T09:22:30;99843.69;;;21.72;37.16
60646;BME280;46462;32.608;-117.032;2023-04-01T09:27:27;99840.03;;;21.63;37.26
60646;BME280;46462;32.608;-117.032;2023-04-01T09:34:55;99829.47;;;21.64;37.15
60646;BME280;46462;32.608;-117.032;2023-04-01T09:37:33;99830.40;;;21.74;36.94
60646;BME280;46462;32.608;-117.032;2023-04-01T09:42:32;99825.78;;;21.64;37.06
60646;BME280;46462;32.608;-117.032;2023-04-01T09:44:58;99825.13;;;21.65;36.99
60646;BME280;46462;32.608;-117.032;2023-04-01T09:52:35;99820.62;;;21.63;36.94
60646;BME280;46462;32.608;-117.032;2023-04-01T09:55:12;99816.52;;;21.59;36.97
60646;BME280;46462;32.608;-117.032;2023-04-01T10:00:10;99807.48;;;21.52;37.03
60646;BME280;46462;32.608;-117.032;2023-04-01T10:12:50;99800.76;;;21.49;36.90
60646;BME280;46462;32.608;-117.032;2023-04-01T10:15:21;99798.84;;;21.48;36.90
60646;BME280;46462;32.608;-117.032;2023-04-01T10:17:48;99797.65;;;21.45;36.90
60646;BME280;46462;32.608;-117.032;2023-04-01T10:20:22;99796.99;;;21.42;36.91
60646;BME280;46462;32.608;-117.032;2023-04-01T10:22:50;99795.41;;;21.37;37.00
60646;BME280;46462;32.608;-117.032;2023-04-01T10:25:19;99783.71;;;21.38;36.95
60646;BME280;46462;32.608;-117.032;2023-04-01T10:27:49;99773.24;;;21.38;36.92
60646;BME280;46462;32.608;-117.032;2023-04-01T10:30:23;99765.92;;;21.35;36.95
60646;BME280;46462;32.608;-117.032;2023-04-01T10:35:26;99762.23;;;21.31;36.96
60646;BME280;46462;32.608;-117.032;2023-04-01T11:00:31;99750.53;;;21.30;36.59
60646;BME280;46462;32.608;-117.032;2023-04-01T11:13:05;99746.34;;;21.35;36.33
60646;BME280;46462;32.608;-117.032;2023-04-01T11:20:40;99746.68;;;21.28;36.37
60646;BME280;46462;32.608;-117.032;2023-04-01T11:28:11;99747.16;;;21.31;36.22
60646;BME280;46462;32.608;-117.032;2023-04-01T11:33:06;99746.69;;;21.23;36.28
60646;BME280;46462;32.608;-117.032;2023-04-01T11:40:40;99752.51;;;21.17;36.33
60646;BME280;46462;32.608;-117.032;2023-04-01T11:43:14;99754.68;;;21.19;36.24
60646;BME280;46462;32.608;-117.032;2023-04-01T11:45:41;99755.13;;;21.19;36.20
60646;BME280;46462;32.608;-117.032;2023-04-01T11:48:15;99756.75;;;21.19;36.18
60646;BME280;46462;32.608;-117.032;2023-04-01T11:50:51;99754.44;;;21.16;36.20
60646;BME280;46462;32.608;-117.032;2023-04-01T11:53:16;99756.88;;;21.17;36.15
60646;BME280;46462;32.608;-117.032;2023-04-01T11:55:51;99759.87;;;21.15;36.15
60646;BME280;46462;32.608;-117.032;2023-04-01T11:58:21;99768.43;;;21.14;36.14
60646;BME280;46462;32.608;-117.032;2023-04-01T12:00:53;99768.15;;;21.15;36.12
60646;BME280;46462;32.608;-117.032;2023-04-01T12:03:25;99768.79;;;21.11;36.13
60646;BME280;46462;32.608;-117.032;2023-04-01T12:05:46;99769.31;;;21.12;36.10
60646;BME280;46462;32.608;-117.032;2023-04-01T12:08:23;99771.76;;;21.07;36.15
60646;BME280;46462;32.608;-117.032;2023-04-01T12:10:50;99771.40;;;21.06;36.15
60646;BME280;46462;32.608;-117.032;2023-04-01T12:13:27;99770.41;;;21.05;36.14
60646;BME280;46462;32.608;-117.032;2023-04-01T12:15:56;99771.94;;;21.01;36.18
60646;BME280;46462;32.608;-117.032;2023-04-01T12:18:24;99777.98;;;21.03;36.15
60646;BME280;46462;32.608;-117.032;2023-04-01T12:20:52;99782.06;;;21.03;36.11
60646;BME280;46462;32.608;-117.032;2023-04-01T12:23:35;99790.97;;;21.03;36.10
60646;BME280;46462;32.608;-117.032;2023-04-01T12:26:03;99796.05;;;20.98;36.16
60646;BME280;46462;32.608;-117.032;2023-04-01T12:28:29;99792.42;;;21.05;36.00
60646;BME280;46462;32.608;-117.032;2023-04-01T12:31:02;99793.87;;;20.96;36.11
60646;BME280;46462;32.608;-117.032;2023-04-01T12:33:35;99794.14;;;21.06;35.93
60646;BME280;46462;32.608;-117.032;2023-04-01T12:36:02;99796.48;;;21.04;35.94
60646;BME280;46462;32.608;-117.032;2023-04-01T12:38:34;99790.12;;;20.93;36.10
60646;BME280;46462;32.608;-117.032;2023-04-01T12:41:07;99782.86;;;20.98;35.98
60646;BME280;46462;32.608;-117.032;2023-04-01T12:46:05;99774.89;;;20.99;35.90
60646;BME280;46462;32.608;-117.032;2023-04-01T12:48:42;99776.48;;;20.97;35.91
60646;BME280;46462;32.608;-117.032;2023-04-01T12:53:43;99779.10;;;20.92;35.91
60646;BME280;46462;32.608;-117.032;2023-04-01T12:56:03;99777.02;;;20.89;35.96
60646;BME280;46462;32.608;-117.032;2023-04-01T13:01:12;99771.63;;;20.90;35.89
60646;BME280;46462;32.608;-117.032;2023-04-01T13:03:42;99773.73;;;20.86;35.92
60646;BME280;46462;32.608;-117.032;2023-04-01T13:08:41;99779.52;;;20.77;36.02
60646;BME280;46462;32.608;-117.032;2023-04-01T13:11:16;99782.78;;;20.75;36.05
60646;BME280;46462;32.608;-117.032;2023-04-01T13:16:11;99792.13;;;20.72;36.07
60646;BME280;46462;32.608;-117.032;2023-04-01T13:18:51;99796.47;;;20.68;36.07
60646;BME280;46462;32.608;-117.032;2023-04-01T13:21:15;99801.87;;;20.67;36.07
60646;BME280;46462;32.608;-117.032;2023-04-01T13:23:51;99801.19;;;20.66;36.09
60646;BME280;46462;32.608;-117.032;2023-04-01T13:26:19;99798.36;;;20.72;35.97
60646;BME280;46462;32.608;-117.032;2023-04-01T13:28:49;99791.90;;;20.76;35.82
60646;BME280;46462;32.608;-117.032;2023-04-01T13:31:24;99788.37;;;20.77;35.78
60646;BME280;46462;32.608;-117.032;2023-04-01T13:33:50;99789.05;;;20.74;35.78
60646;BME280;46462;32.608;-117.032;2023-04-01T13:36:22;99792.28;;;20.73;35.78
60646;BME280;46462;32.608;-117.032;2023-04-01T13:38:56;99794.97;;;20.73;35.75
60646;BME280;46462;32.608;-117.032;2023-04-01T13:41:25;99794.39;;;20.75;35.70
60646;BME280;46462;32.608;-117.032;2023-04-01T13:43:49;99802.11;;;20.75;35.68
60646;BME280;46462;32.608;-117.032;2023-04-01T13:46:32;99803.59;;;20.75;35.63
60646;BME280;46462;32.608;-117.032;2023-04-01T13:53:57;99813.81;;;20.69;35.68
60646;BME280;46462;32.608;-117.032;2023-04-01T13:56:29;99815.08;;;20.71;35.62
60646;BME280;46462;32.608;-117.032;2023-04-01T13:59:03;99812.77;;;20.67;35.66
60646;BME280;46462;32.608;-117.032;2023-04-01T14:01:26;99817.92;;;20.67;35.65
60646;BME280;46462;32.608;-117.032;2023-04-01T14:06:30;99831.13;;;20.59;35.75
60646;BME280;46462;32.608;-117.032;2023-04-01T14:09:06;99838.34;;;20.59;35.74
60646;BME280;46462;32.608;-117.032;2023-04-01T14:11:27;99842.97;;;20.58;35.72
60646;BME280;46462;32.608;-117.032;2023-04-01T14:14:01;99846.28;;;20.59;35.69
60646;BME280;46462;32.608;-117.032;2023-04-01T14:21:33;99845.63;;;20.52;35.76
60646;BME280;46462;32.608;-117.032;2023-04-01T14:28:59;99857.72;;;20.54;35.68
60646;BME280;46462;32.608;-117.032;2023-04-01T14:31:30;99858.09;;;20.51;35.74
60646;BME280;46462;32.608;-117.032;2023-04-01T14:34:03;99859.41;;;20.54;35.67
60646;BME280;46462;32.608;-117.032;2023-04-01T14:39:01;99859.96;;;20.47;35.74
60646;BME280;46462;32.608;-117.032;2023-04-01T14:41:34;99860.21;;;20.46;35.73
60646;BME280;46462;32.608;-117.032;2023-04-01T14:46:34;99861.49;;;20.37;35.92
60646;BME280;46462;32.608;-117.032;2023-04-01T14:48:59;99862.98;;;20.42;35.81
60646;BME280;46462;32.608;-117.032;2023-04-01T14:51:31;99865.44;;;20.40;35.81
60646;BME280;46462;32.608;-117.032;2023-04-01T14:54:02;99871.87;;;20.42;35.78
60646;BME280;46462;32.608;-117.032;2023-04-01T14:58:58;99872.75;;;20.42;35.77
60646;BME280;46462;32.608;-117.032;2023-04-01T15:01:34;99874.11;;;20.43;35.74
60646;BME280;46462;32.608;-117.032;2023-04-01T15:04:02;99873.37;;;20.42;35.74
60646;BME280;46462;32.608;-117.032;2023-04-01T15:06:40;99871.40;;;20.45;35.67